createdAt,value
2022-08-08T00:02:04.194Z,101678.41
2022-08-08T00:04:49.022Z,101667.75
2022-08-08T00:07:28.786Z,101613.44
2022-08-08T00:10:10.528Z,101659.94
2022-08-08T00:15:57.448Z,101664.53
2022-08-08T00:18:27.432Z,101657.72
2022-08-08T00:20:58.622Z,101600.34
2022-08-08T00:23:43.392Z,101613.94
2022-08-08T00:26:30.058Z,101623.50
2022-08-08T00:29:11.040Z,101623.66
2022-08-08T00:32:29.240Z,101573.72
2022-08-08T00:35:18.299Z,101658.25
2022-08-08T00:38:02.314Z,101632.03
2022-08-08T00:41:11.327Z,101661.63
2022-08-08T00:43:46.353Z,101662.03
2022-08-08T00:46:55.852Z,101663.63
2022-08-08T00:49:39.230Z,101663.59
2022-08-08T00:52:34.716Z,101638.00
2022-08-08T00:55:35.727Z,101670.28
2022-08-08T00:58:54.065Z,101662.59
2022-08-08T01:01:38.380Z,101640.00
2022-08-08T01:04:42.048Z,101660.72
2022-08-08T01:07:54.912Z,101661.97
2022-08-08T01:10:45.258Z,101632.78
2022-08-08T01:13:52.797Z,101669.28
2022-08-08T01:16:37.183Z,101665.81
2022-08-08T01:19:52.005Z,101666.00
2022-08-08T01:22:34.875Z,101666.53
2022-08-08T01:25:40.688Z,101666.91
2022-08-08T01:28:34.377Z,101664.75
2022-08-08T01:32:06.850Z,101663.91
2022-08-08T01:35:11.436Z,101642.31
2022-08-08T01:38:07.316Z,101665.31
2022-08-08T01:40:54.212Z,101653.47
2022-08-08T01:43:42.909Z,101657.06
2022-08-08T01:46:27.847Z,101654.47
2022-08-08T01:49:22.950Z,101653.47
2022-08-08T01:52:44.251Z,101631.03
2022-08-08T01:55:44.953Z,101654.59
2022-08-08T01:58:10.728Z,101660.91
2022-08-08T02:00:57.340Z,101664.38
2022-08-08T02:03:55.404Z,101645.69
2022-08-08T02:06:32.391Z,101662.88
2022-08-08T02:10:01.273Z,101652.06
2022-08-08T02:12:37.164Z,101646.16
2022-08-08T02:15:34.743Z,101648.38
2022-08-08T02:18:21.240Z,101628.50
2022-08-08T02:21:18.058Z,101665.78
2022-08-08T02:23:57.912Z,101668.22
2022-08-08T02:26:43.437Z,101665.66
2022-08-08T02:29:20.833Z,101669.22
2022-08-08T02:32:40.457Z,101641.47
2022-08-08T02:36:04.547Z,101664.97
2022-08-08T02:39:01.614Z,101661.00
2022-08-08T02:42:38.485Z,101629.09
2022-08-08T02:45:23.447Z,101656.78
2022-08-08T02:48:15.957Z,101657.88
2022-08-08T02:51:02.875Z,101603.22
2022-08-08T02:53:53.507Z,101655.41
2022-08-08T02:56:35.354Z,101663.38
2022-08-08T02:59:25.798Z,101659.28
2022-08-08T03:02:30.368Z,101661.28
2022-08-08T03:05:45.259Z,101658.94
2022-08-08T03:08:27.928Z,101652.72
2022-08-08T03:12:01.912Z,101651.66
2022-08-08T03:15:58.740Z,101644.88
2022-08-08T03:17:41.406Z,101645.44
2022-08-08T03:20:10.608Z,101662.16
2022-08-08T03:22:57.039Z,101671.84
2022-08-08T03:25:35.827Z,101630.59
2022-08-08T03:28:07.727Z,101675.81
2022-08-08T03:30:34.693Z,101674.94
2022-08-08T03:33:54.826Z,101655.28
2022-08-08T03:36:16.057Z,101658.50
2022-08-08T03:38:56.482Z,101682.97
2022-08-08T03:42:04.160Z,101639.09
2022-08-08T03:44:20.514Z,101663.44
2022-08-08T03:46:52.217Z,101686.88
2022-08-08T03:49:57.850Z,101696.78
2022-08-08T03:52:13.250Z,101698.69
2022-08-08T03:55:02.000Z,101653.41
2022-08-08T03:58:30.600Z,101664.94
2022-08-08T04:00:19.675Z,101700.75
2022-08-08T04:03:11.759Z,101696.41
2022-08-08T04:05:39.803Z,101696.41
2022-08-08T04:08:32.946Z,101674.22
2022-08-08T04:11:10.933Z,101675.03
2022-08-08T04:14:03.190Z,101686.13
2022-08-08T04:16:40.236Z,101688.19
2022-08-08T04:19:23.347Z,101647.81
2022-08-08T04:21:50.954Z,101660.94
2022-08-08T04:24:28.223Z,101692.16
2022-08-08T04:26:58.011Z,101664.50
2022-08-08T04:29:25.545Z,101688.72
2022-08-08T04:31:58.353Z,101712.03
2022-08-08T04:34:28.070Z,101722.63
2022-08-08T04:36:59.131Z,101676.72
2022-08-08T04:40:04.198Z,101667.25
2022-08-08T04:42:15.618Z,101657.59
2022-08-08T04:44:42.583Z,101680.28
2022-08-08T04:47:14.783Z,101674.91
2022-08-08T04:50:00.949Z,101728.94
2022-08-08T04:52:33.918Z,101732.72
2022-08-08T04:55:01.871Z,101647.69
2022-08-08T04:57:28.721Z,101725.59
2022-08-08T04:59:55.472Z,101616.66
2022-08-08T05:02:28.621Z,101684.28
2022-08-08T05:04:59.361Z,101715.53
2022-08-08T05:07:26.974Z,101719.22
2022-08-08T05:10:05.323Z,101589.50
2022-08-08T05:12:36.759Z,101583.31
2022-08-08T05:15:04.499Z,101651.72
2022-08-08T05:17:53.806Z,101651.97
2022-08-08T05:20:18.269Z,101638.91
2022-08-08T05:22:44.763Z,101696.69
2022-08-08T05:25:11.234Z,101653.34
2022-08-08T05:27:41.628Z,101637.78
2022-08-08T05:30:11.245Z,101676.53
2022-08-08T05:32:39.231Z,101720.84
2022-08-08T05:35:07.222Z,101725.09
2022-08-08T05:37:51.794Z,101668.91
2022-08-08T05:40:27.670Z,101693.47
2022-08-08T05:43:38.379Z,101722.25
2022-08-08T05:46:11.449Z,101733.28
2022-08-08T05:48:38.788Z,101732.56
2022-08-08T05:51:14.772Z,101712.94
2022-08-08T05:54:26.106Z,101740.69
2022-08-08T05:56:36.868Z,101733.81
2022-08-08T05:59:12.497Z,101739.88
2022-08-08T06:01:56.798Z,101720.72
2022-08-08T06:04:26.595Z,101749.31
2022-08-08T06:07:01.619Z,101707.66
2022-08-08T06:10:00.215Z,101763.00
2022-08-08T06:12:30.421Z,101729.94
2022-08-08T06:15:03.141Z,101741.00
2022-08-08T06:18:18.775Z,101732.16
2022-08-08T06:20:20.921Z,101725.81
2022-08-08T06:22:49.290Z,101759.25
2022-08-08T06:25:17.955Z,101737.63
2022-08-08T06:27:58.362Z,101714.19
2022-08-08T06:30:28.211Z,101690.44
2022-08-08T06:32:58.238Z,101743.47
2022-08-08T06:36:06.220Z,101747.75
2022-08-08T06:38:25.067Z,101779.41
2022-08-08T06:41:04.810Z,101727.91
2022-08-08T06:43:36.700Z,101722.59
2022-08-08T06:46:04.827Z,101713.03
2022-08-08T06:48:36.270Z,101757.53
2022-08-08T06:51:08.472Z,101744.75
2022-08-08T06:53:39.922Z,101733.31
2022-08-08T06:56:09.158Z,101725.03
2022-08-08T06:58:37.051Z,101742.94
2022-08-08T07:01:52.624Z,101749.28
2022-08-08T07:04:38.732Z,101671.44
2022-08-08T07:07:10.621Z,101553.03
2022-08-08T07:10:00.370Z,101734.22
2022-08-08T07:12:43.875Z,101778.41
2022-08-08T07:15:32.595Z,101688.66
2022-08-08T07:18:36.725Z,101756.50
2022-08-08T07:21:02.109Z,101758.81
2022-08-08T07:24:01.005Z,101734.69
2022-08-08T07:26:35.993Z,101759.91
2022-08-08T07:29:05.742Z,101707.56
2022-08-08T07:31:35.889Z,101794.25
2022-08-08T07:34:08.978Z,101789.59
2022-08-08T07:36:41.903Z,101716.06
2022-08-08T07:39:18.232Z,101746.22
2022-08-08T07:42:04.411Z,101727.88
2022-08-08T07:45:02.515Z,101776.66
2022-08-08T07:47:39.159Z,101807.97
2022-08-08T07:50:06.751Z,101775.16
2022-08-08T07:52:35.843Z,101766.75
2022-08-08T07:55:17.203Z,101717.16
2022-08-08T07:58:05.290Z,101815.03
2022-08-08T08:00:52.869Z,101734.66
2022-08-08T08:03:43.314Z,101810.28
2022-08-08T08:06:12.490Z,101814.31
2022-08-08T08:08:52.188Z,101745.47
2022-08-08T08:11:21.481Z,101695.00
2022-08-08T08:14:09.732Z,101712.25
2022-08-08T08:16:41.086Z,101739.63
2022-08-08T08:19:15.031Z,101725.50
2022-08-08T08:21:53.372Z,101818.94
2022-08-08T08:24:30.694Z,101740.28
2022-08-08T08:26:58.456Z,101773.63
2022-08-08T08:29:27.709Z,101739.81
2022-08-08T08:31:57.884Z,101756.94
2022-08-08T08:34:32.804Z,101756.28
2022-08-08T08:37:08.109Z,101739.69
2022-08-08T08:39:59.690Z,101823.97
2022-08-08T08:42:35.104Z,101777.97
2022-08-08T08:45:20.813Z,101752.81
2022-08-08T08:47:53.196Z,101762.91
2022-08-08T08:50:33.718Z,101761.03
2022-08-08T08:53:27.170Z,101824.25
2022-08-08T08:55:54.083Z,101751.91
2022-08-08T08:58:30.313Z,101741.97
2022-08-08T09:01:09.070Z,101766.00
2022-08-08T09:03:45.886Z,101767.91
2022-08-08T09:06:28.485Z,101715.09
2022-08-08T09:09:37.520Z,101750.34
2022-08-08T09:12:08.002Z,101720.16
2022-08-08T09:14:35.576Z,101792.63
2022-08-08T09:17:14.262Z,101833.88
2022-08-08T09:22:01.960Z,101762.84
2022-08-08T09:22:31.739Z,101752.16
2022-08-08T09:24:58.632Z,101735.34
2022-08-08T09:27:41.884Z,101789.66
2022-08-08T09:30:17.725Z,101763.13
2022-08-08T09:34:14.817Z,101831.56
2022-08-08T09:36:39.357Z,101771.53
2022-08-08T09:39:15.626Z,101753.97
2022-08-08T09:42:20.001Z,101735.66
2022-08-08T09:45:15.726Z,101795.28
2022-08-08T09:48:04.129Z,101811.97
2022-08-08T09:50:43.992Z,101797.06
2022-08-08T09:53:24.864Z,101809.59
2022-08-08T09:56:11.663Z,101718.72
2022-08-08T09:58:45.283Z,101703.53
2022-08-08T10:01:59.214Z,101817.31
2022-08-08T10:04:14.266Z,101808.13
2022-08-08T10:06:45.134Z,101812.72
2022-08-08T10:09:13.454Z,101788.50
2022-08-08T10:12:27.746Z,101725.53
2022-08-08T10:14:39.194Z,101805.91
2022-08-08T10:17:56.671Z,101744.63
2022-08-08T10:20:00.183Z,101801.31
2022-08-08T10:22:32.304Z,101802.53
2022-08-08T10:25:05.809Z,101809.09
2022-08-08T10:27:43.285Z,101666.56
2022-08-08T10:30:16.722Z,101626.00
2022-08-08T10:33:00.342Z,101802.41
2022-08-08T10:36:07.314Z,101799.44
2022-08-08T10:38:19.571Z,101776.00
2022-08-08T10:40:51.146Z,101796.66
2022-08-08T10:43:18.601Z,101800.84
2022-08-08T10:45:55.871Z,101735.84
2022-08-08T10:48:37.379Z,101797.84
2022-08-08T10:51:20.138Z,101796.13
2022-08-08T10:53:56.607Z,101802.38
2022-08-08T10:56:27.909Z,101799.94
2022-08-08T10:59:09.565Z,101762.81
2022-08-08T11:01:41.808Z,101809.63
2022-08-08T11:04:10.538Z,101797.16
2022-08-08T11:06:41.321Z,101797.38
2022-08-08T11:09:19.330Z,101760.16
2022-08-08T11:12:06.158Z,101799.09
2022-08-08T11:14:33.676Z,101777.34
2022-08-08T11:17:02.982Z,101776.91
2022-08-08T11:19:33.556Z,101773.25
2022-08-08T11:22:01.305Z,101780.44
2022-08-08T11:24:34.077Z,101737.91
2022-08-08T11:27:10.561Z,101783.75
2022-08-08T11:30:04.222Z,101753.88
2022-08-08T11:32:40.883Z,101768.28
2022-08-08T11:35:27.554Z,101789.59
2022-08-08T11:38:36.446Z,101694.06
2022-08-08T11:40:52.387Z,101778.34
2022-08-08T11:43:20.223Z,101777.88
2022-08-08T11:46:09.727Z,101697.31
2022-08-08T11:48:38.487Z,101690.34
2022-08-08T11:51:30.215Z,101741.81
2022-08-08T11:53:55.196Z,101754.56
2022-08-08T11:56:25.807Z,101774.25
2022-08-08T11:58:54.181Z,101760.38
2022-08-08T12:01:31.854Z,101765.47
2022-08-08T12:04:04.005Z,101774.22
2022-08-08T12:06:32.658Z,101752.13
2022-08-08T12:09:09.716Z,101761.47
2022-08-08T12:11:46.169Z,101715.13
2022-08-08T12:14:29.016Z,101763.91
2022-08-08T12:16:57.031Z,101730.69
2022-08-08T12:19:37.540Z,101768.00
2022-08-08T12:22:13.868Z,101701.81
2022-08-08T12:24:53.935Z,101728.88
2022-08-08T12:27:26.362Z,101731.53
2022-08-08T12:29:56.363Z,101689.75
2022-08-08T12:32:23.244Z,101751.16
2022-08-08T12:35:04.578Z,101763.28
2022-08-08T12:38:01.257Z,101667.44
2022-08-08T12:40:56.891Z,101693.44
2022-08-08T12:43:43.342Z,101655.97
2022-08-08T12:46:19.049Z,101653.56
2022-08-08T12:49:25.079Z,101726.13
2022-08-08T12:51:58.417Z,101700.13
2022-08-08T12:54:37.957Z,101735.47
2022-08-08T12:57:17.160Z,101687.88
2022-08-08T13:00:03.313Z,101679.22
2022-08-08T13:02:36.000Z,101722.03
2022-08-08T13:05:26.843Z,101713.13
2022-08-08T13:08:18.482Z,101656.28
2022-08-08T13:10:56.173Z,101753.81
2022-08-08T13:13:35.522Z,101720.47
2022-08-08T13:16:25.732Z,101694.81
2022-08-08T13:19:00.436Z,101679.38
2022-08-08T13:21:48.890Z,101727.00
2022-08-08T13:24:18.817Z,101726.34
2022-08-08T13:27:05.105Z,101724.44
2022-08-08T13:29:47.221Z,101663.78
2022-08-08T13:32:13.742Z,101721.09
2022-08-08T13:34:41.861Z,101636.63
2022-08-08T13:37:10.927Z,101709.75
2022-08-08T13:39:51.095Z,101712.75
2022-08-08T13:42:18.343Z,101712.50
2022-08-08T13:44:53.708Z,101717.09
2022-08-08T13:47:20.161Z,101711.31
2022-08-08T13:50:35.589Z,101729.31
2022-08-08T13:52:48.617Z,101738.56
2022-08-08T13:55:28.070Z,101699.69
2022-08-08T13:58:08.241Z,101717.31
2022-08-08T14:00:40.648Z,101729.84
2022-08-08T14:03:53.648Z,101718.13
2022-08-08T14:06:32.101Z,101738.63
2022-08-08T14:08:57.948Z,101737.22
2022-08-08T14:11:27.962Z,101658.41
2022-08-08T14:13:59.470Z,101727.09
2022-08-08T14:16:27.674Z,101736.66
2022-08-08T14:18:58.729Z,101719.69
2022-08-08T14:21:49.037Z,101674.91
2022-08-08T14:24:33.512Z,101721.81
2022-08-08T14:27:01.646Z,101698.63
2022-08-08T14:29:39.168Z,101721.75
2022-08-08T14:32:14.142Z,101692.88
2022-08-08T14:34:50.297Z,101734.63
2022-08-08T14:37:18.105Z,101722.72
2022-08-08T14:40:06.505Z,101708.84
2022-08-08T14:42:55.073Z,101725.66
2022-08-08T14:45:33.496Z,101708.72
2022-08-08T14:48:16.524Z,101709.97
2022-08-08T14:51:04.424Z,101736.13
2022-08-08T14:53:54.908Z,101721.84
2022-08-08T14:56:24.869Z,101707.06
2022-08-08T14:58:51.768Z,101672.34
2022-08-08T15:01:23.798Z,101689.28
2022-08-08T15:03:53.605Z,101699.75
2022-08-08T15:06:35.022Z,101713.03
2022-08-08T15:09:04.190Z,101688.16
2022-08-08T15:11:39.400Z,101690.44
2022-08-08T15:14:14.327Z,101670.47
2022-08-08T15:16:42.584Z,101671.63
2022-08-08T15:19:10.686Z,101700.41
2022-08-08T15:21:37.878Z,101672.66
2022-08-08T15:24:13.668Z,101674.09
2022-08-08T15:26:41.540Z,101701.03
2022-08-08T15:29:08.117Z,101701.31
2022-08-08T15:32:17.391Z,101709.81
2022-08-08T15:34:47.619Z,101722.16
2022-08-08T15:37:14.043Z,101652.56
2022-08-08T15:39:40.554Z,101622.56
2022-08-08T15:42:10.243Z,101707.63
2022-08-08T15:44:37.649Z,101645.78
2022-08-08T15:47:07.127Z,101655.81
2022-08-08T15:49:43.830Z,101699.22
2022-08-08T15:52:13.375Z,101692.97
2022-08-08T15:54:47.823Z,101687.66
2022-08-08T15:57:15.540Z,101692.09
2022-08-08T16:00:25.232Z,101691.25
2022-08-08T16:02:31.015Z,101646.78
2022-08-08T16:05:01.498Z,101654.78
2022-08-08T16:07:51.933Z,101654.06
2022-08-08T16:13:11.081Z,101684.84
2022-08-08T16:13:34.352Z,101640.94
2022-08-08T16:15:58.207Z,101661.16
2022-08-08T16:18:35.824Z,101688.19
2022-08-08T16:21:02.432Z,101633.56
2022-08-08T16:23:31.727Z,101677.53
2022-08-08T16:26:04.059Z,101653.81
2022-08-08T16:28:35.969Z,101650.66
2022-08-08T16:31:07.752Z,101689.19
2022-08-08T16:33:38.616Z,101606.03
2022-08-08T16:36:09.782Z,101687.19
2022-08-08T16:38:47.441Z,101687.56
2022-08-08T16:41:22.433Z,101662.03
2022-08-08T16:43:50.888Z,101684.06
2022-08-08T16:46:36.542Z,101667.53
2022-08-08T16:49:05.938Z,101642.25
2022-08-08T16:55:02.366Z,101658.59
2022-08-08T16:55:18.132Z,101676.75
2022-08-08T16:58:13.383Z,101680.28
2022-08-08T16:59:57.963Z,101682.16
2022-08-08T17:02:41.879Z,101656.44
2022-08-08T17:05:12.867Z,101664.91
2022-08-08T17:07:40.529Z,101663.38
2022-08-08T17:10:08.914Z,101687.41
2022-08-08T17:12:36.769Z,101646.88
2022-08-08T17:15:17.634Z,101674.03
2022-08-08T17:18:02.541Z,101698.81
2022-08-08T17:20:30.937Z,101702.38
2022-08-08T17:23:16.568Z,101670.50
2022-08-08T17:25:52.241Z,101674.59
2022-08-08T17:47:09.434Z,101682.91
2022-08-08T17:49:43.474Z,101617.47
2022-08-08T17:52:23.051Z,101690.97
2022-08-08T17:54:56.191Z,101680.84
2022-08-08T18:06:43.041Z,101710.09
2022-08-08T18:09:14.673Z,101636.09
2022-08-08T18:11:43.974Z,101692.16
2022-08-08T18:14:21.687Z,101694.72
2022-08-08T18:16:54.441Z,101700.56
2022-08-08T18:19:25.274Z,101632.69
2022-08-08T18:22:01.633Z,101716.25
2022-08-08T18:24:30.199Z,101722.69
2022-08-08T18:26:58.969Z,101701.44
2022-08-08T18:29:36.012Z,101708.97
2022-08-08T18:32:05.414Z,101722.69
2022-08-08T18:34:36.162Z,101609.09
2022-08-08T18:37:08.057Z,101619.00
2022-08-08T18:39:37.212Z,101730.06
2022-08-08T18:42:09.129Z,101648.63
2022-08-08T18:44:41.661Z,101674.22
2022-08-08T18:47:08.069Z,101752.75
2022-08-08T18:49:41.089Z,101725.53
2022-08-08T18:52:22.285Z,101734.38
2022-08-08T18:55:00.779Z,101742.09
2022-08-08T18:57:41.176Z,101727.63
2022-08-08T19:00:15.783Z,101764.69
2022-08-08T19:02:55.272Z,101673.94
2022-08-08T19:05:32.070Z,101757.13
2022-08-08T19:08:07.850Z,101762.06
2022-08-08T19:10:34.537Z,101731.31
2022-08-08T19:13:01.620Z,101747.09
2022-08-08T19:15:33.902Z,101752.66
2022-08-08T19:18:33.276Z,101733.81
2022-08-08T19:20:57.449Z,101776.88
2022-08-08T19:23:23.889Z,101714.66
2022-08-08T19:26:20.019Z,101710.31
2022-08-08T19:28:39.245Z,101749.88
2022-08-08T19:31:09.372Z,101783.91
2022-08-08T19:33:51.737Z,101771.13
2022-08-08T19:36:27.374Z,101787.44
2022-08-08T19:38:54.349Z,101810.47
2022-08-08T19:41:21.489Z,101817.56
2022-08-08T19:44:02.366Z,101742.16
2022-08-08T19:46:33.232Z,101781.66
2022-08-08T19:49:00.648Z,101770.31
2022-08-08T19:51:34.142Z,101812.69
2022-08-08T19:54:01.737Z,101817.53
2022-08-08T19:56:40.033Z,101813.53
2022-08-08T19:59:11.799Z,101795.38
2022-08-08T20:02:01.335Z,101776.88
2022-08-08T20:04:27.774Z,101820.03
2022-08-08T20:06:56.939Z,101819.97
2022-08-08T20:09:24.721Z,101831.22
2022-08-08T20:11:52.122Z,101790.78
2022-08-08T20:14:34.602Z,101784.69
2022-08-08T20:17:02.551Z,101803.66
2022-08-08T20:19:33.465Z,101797.25
2022-08-08T20:22:20.926Z,101776.22
2022-08-08T20:25:01.501Z,101834.66
2022-08-08T20:27:43.592Z,101703.69
2022-08-08T20:30:52.863Z,101829.19
2022-08-08T20:33:01.724Z,101805.50
2022-08-08T20:35:32.889Z,101823.66
2022-08-08T20:38:15.095Z,101807.34
2022-08-08T20:40:47.380Z,101758.19
2022-08-08T20:43:42.917Z,101807.97
2022-08-08T20:46:04.145Z,101807.59
2022-08-08T20:56:07.268Z,101844.47
2022-08-08T20:59:00.551Z,101790.38
2022-08-08T21:02:05.348Z,101724.16
2022-08-08T21:08:00.844Z,101820.03
2022-08-08T21:10:22.182Z,101808.53
2022-08-08T21:12:55.111Z,101783.28
2022-08-08T21:16:06.370Z,101744.34
2022-08-08T21:18:10.250Z,101828.03
2022-08-08T21:20:38.406Z,101828.56
2022-08-08T21:23:09.142Z,101850.13
2022-08-08T21:25:36.711Z,101782.41
2022-08-08T21:28:09.249Z,101866.97
2022-08-08T21:30:42.517Z,101752.22
2022-08-08T21:33:12.010Z,101824.19
2022-08-08T21:36:16.190Z,101780.22
2022-08-08T21:38:25.914Z,101742.88
2022-08-08T21:40:55.844Z,101762.59
2022-08-08T21:43:33.350Z,101857.50
2022-08-08T21:48:04.361Z,101776.72
2022-08-08T21:48:52.706Z,101794.97
2022-08-08T21:54:22.739Z,101705.75
2022-08-08T21:54:31.997Z,101751.41
2022-08-08T21:56:56.242Z,101780.38
2022-08-08T21:59:22.879Z,101789.28
2022-08-08T22:01:52.504Z,101700.22
2022-08-08T22:04:25.391Z,101807.88
2022-08-08T22:12:51.151Z,101847.97
2022-08-08T22:15:18.528Z,101844.78
2022-08-08T22:17:45.957Z,101855.63
2022-08-08T22:20:18.872Z,101778.81
2022-08-08T22:22:51.025Z,101871.16
2022-08-08T22:25:25.207Z,101723.94
2022-08-08T22:28:03.512Z,101887.69
2022-08-08T22:30:42.391Z,101798.69
2022-08-08T22:33:22.234Z,101885.38
2022-08-08T22:36:04.327Z,101863.16
2022-08-08T22:38:39.274Z,101825.34
2022-08-08T22:41:15.994Z,101865.41
2022-08-08T22:44:02.972Z,101859.97
2022-08-08T22:46:34.202Z,101881.75
2022-08-08T22:49:01.801Z,101883.91
2022-08-08T22:51:29.454Z,101772.50
2022-08-08T22:54:33.849Z,101836.13
2022-08-08T22:56:47.884Z,101867.00
2022-08-08T22:59:18.511Z,101868.94
2022-08-08T23:02:02.443Z,101849.41
2022-08-08T23:04:32.059Z,101866.84
2022-08-08T23:07:02.833Z,101882.69
2022-08-08T23:09:30.523Z,101873.13
2022-08-08T23:12:27.458Z,101864.69
2022-08-08T23:14:56.166Z,101834.31
2022-08-08T23:17:29.926Z,101782.66
2022-08-08T23:19:56.617Z,101845.16
2022-08-08T23:22:22.995Z,101881.09
2022-08-08T23:24:50.787Z,101841.41
2022-08-08T23:27:37.684Z,101878.13
2022-08-08T23:30:05.541Z,101882.53
2022-08-08T23:32:35.822Z,101854.00
2022-08-08T23:35:16.967Z,101755.16
2022-08-08T23:38:02.222Z,101850.69
2022-08-08T23:40:29.717Z,101883.78
2022-08-08T23:42:56.787Z,101879.84
2022-08-08T23:49:01.799Z,101686.16
2022-08-08T23:49:06.340Z,101833.47
2022-08-08T23:50:57.009Z,101793.69
2022-08-08T23:54:06.455Z,101881.16
2022-08-08T23:56:10.377Z,101853.22
2022-08-08T23:58:38.951Z,101840.09
